Time;durP1;ratioP1;P1;durP2;ratioP2;P2;SDS_P1;SDS_P2;PMS_P1;PMS_P2;Temp;Humidity;BMP_temperature;BMP_pressure;BME280_temperature;BME280_humidity;BME280_pressure;Samples;Min_cycle;Max_cycle;Signal;HPM_P1;HPM_P2
2021/10/30 00:00:11;;;;;;;40.58;28.32;;;;;;;8.52;66.09;100689.03;1743284;82;21073;-37
2021/10/30 00:02:39;;;;;;;41.55;27.48;;;;;;;8.49;66.10;100691.58;1743346;82;21103;-37
2021/10/30 00:05:08;;;;;;;44.13;28.90;;;;;;;8.48;66.19;100689.98;1743224;82;21511;-37
2021/10/30 00:07:35;;;;;;;49.05;30.32;;;;;;;8.47;66.24;100683.00;1743347;82;20926;-37
2021/10/30 00:10:02;;;;;;;46.28;29.23;;;;;;;8.45;66.52;100686.01;1743621;82;21480;-37
2021/10/30 00:12:29;;;;;;;45.12;30.10;;;;;;;8.43;66.72;100684.16;1743364;82;21209;-37
2021/10/30 00:14:55;;;;;;;49.58;30.17;;;;;;;8.41;66.86;100688.30;1743310;81;21086;-37
2021/10/30 00:17:21;;;;;;;41.73;27.30;;;;;;;8.38;66.88;100678.89;1745621;81;21795;-37
2021/10/30 00:19:48;;;;;;;40.98;26.52;;;;;;;8.38;66.89;100678.09;1756338;81;21562;-36
2021/10/30 00:22:16;;;;;;;45.00;28.12;;;;;;;8.41;66.90;100678.84;1756510;81;20898;-37
2021/10/30 00:24:43;;;;;;;45.88;28.95;;;;;;;8.43;66.91;100676.05;1750163;81;20970;-37
2021/10/30 00:27:12;;;;;;;48.23;27.70;;;;;;;8.40;67.13;100679.94;1754814;81;21952;-37
2021/10/30 00:29:39;;;;;;;41.65;27.93;;;;;;;8.39;67.27;100681.05;1754910;81;21061;-37
2021/10/30 00:32:07;;;;;;;46.77;29.48;;;;;;;8.34;67.40;100679.28;1756502;80;21287;-37
2021/10/30 00:34:35;;;;;;;45.10;29.67;;;;;;;8.31;67.46;100684.52;1756922;81;20973;-37
2021/10/30 00:37:03;;;;;;;42.58;27.80;;;;;;;8.27;67.61;100686.47;1756599;81;21503;-37
2021/10/30 00:39:31;;;;;;;;;;;;;;;8.25;67.79;100681.13;1759320;81;20984;-37
2021/10/30 00:41:58;;;;;;;46.28;27.73;;;;;;;8.28;67.88;100677.23;1756559;81;20175;-37
2021/10/30 00:44:25;;;;;;;43.15;27.82;;;;;;;8.22;68.15;100683.11;1756425;81;20972;-37
2021/10/30 00:46:52;;;;;;;45.25;27.95;;;;;;;8.24;68.25;100680.32;1756362;81;21013;-36
2021/10/30 00:49:20;;;;;;;45.43;29.15;;;;;;;8.26;68.31;100677.32;1739687;81;21103;-37
2021/10/30 00:51:50;;;;;;;44.77;30.15;;;;;;;8.24;68.42;100681.67;1726232;81;21099;-37
2021/10/30 00:54:17;;;;;;;44.67;27.77;;;;;;;8.23;68.53;100673.32;1700098;83;21544;-37
2021/10/30 00:56:43;;;;;;;45.73;27.37;;;;;;;8.24;68.58;100665.47;1726305;83;21008;-37
2021/10/30 00:59:15;;;;;;;45.85;27.75;;;;;;;8.28;68.50;100672.38;1726357;83;21035;-37
2021/10/30 01:01:46;;;;;;;45.25;28.07;;;;;;;8.33;68.38;100674.21;1726503;83;21498;-37
2021/10/30 01:04:12;;;;;;;46.37;28.52;;;;;;;8.35;68.37;100675.48;1742311;81;21119;-37
2021/10/30 01:06:44;;;;;;;44.77;28.77;;;;;;;8.35;68.31;100671.97;1756453;81;21008;-37
2021/10/30 01:09:11;;;;;;;47.15;29.70;;;;;;;8.34;68.22;100668.47;1756439;81;21457;-37
2021/10/30 01:11:40;;;;;;;45.45;28.65;;;;;;;8.32;68.09;100675.31;1756410;81;21005;-37
2021/10/30 01:14:08;;;;;;;43.08;27.55;;;;;;;8.28;68.12;100670.48;1756633;81;21041;-36
2021/10/30 01:16:36;;;;;;;42.53;27.15;;;;;;;8.25;68.09;100673.82;1756352;81;21278;-37
2021/10/30 01:19:02;;;;;;;40.88;26.87;;;;;;;8.27;68.12;100669.47;1746680;81;21069;-37
2021/10/30 01:21:35;;;;;;;42.95;28.70;;;;;;;8.31;67.99;100676.41;1743114;82;20955;-37
2021/10/30 01:24:05;;;;;;;41.48;27.35;;;;;;;8.31;67.94;100676.41;1743164;81;21013;-37
2021/10/30 01:26:34;;;;;;;42.88;28.20;;;;;;;8.29;67.90;100677.52;1713655;83;21053;-36
2021/10/30 01:29:03;;;;;;;45.37;26.77;;;;;;;8.27;67.71;100671.61;1714128;83;21121;-37
2021/10/30 01:31:30;;;;;;;45.20;28.40;;;;;;;8.24;67.71;100669.52;1713520;83;20973;-37
2021/10/30 01:33:57;;;;;;;38.23;24.82;;;;;;;8.19;67.77;100673.70;1713558;83;21037;-37
2021/10/30 01:36:24;;;;;;;45.43;26.00;;;;;;;8.16;67.77;100674.89;1713542;83;21005;-37
2021/10/30 01:38:51;;;;;;;43.50;25.77;;;;;;;8.18;67.61;100678.86;1722680;82;21045;-36
2021/10/30 01:41:20;;;;;;;38.73;25.23;;;;;;;8.19;67.56;100671.00;1743148;82;21924;-37
2021/10/30 01:43:47;;;;;;;40.63;26.37;;;;;;;8.16;67.62;100674.89;1702624;82;21009;-37
2021/10/30 01:46:17;;;;;;;40.33;25.00;;;;;;;8.13;67.67;100676.29;1741986;82;21065;-37
2021/10/30 01:48:44;;;;;;;42.48;27.48;;;;;;;8.10;67.64;100668.82;1722838;82;21037;-37
2021/10/30 01:51:10;;;;;;;43.38;26.55;;;;;;;8.06;67.57;100675.95;1713722;82;21039;-37
2021/10/30 01:53:37;;;;;;;41.00;25.25;;;;;;;8.01;67.68;100676.09;1716709;82;21929;-37
2021/10/30 01:56:06;;;;;;;40.75;25.08;;;;;;;7.83;67.66;100650.91;1743168;82;21077;-36
2021/10/30 01:58:33;;;;;;;41.70;25.27;;;;;;;8.01;67.57;100676.09;1743198;81;20973;-36
2021/10/30 02:01:00;;;;;;;39.88;25.25;;;;;;;8.07;67.40;100675.41;1743107;81;21002;-37
2021/10/30 02:03:29;;;;;;;39.88;24.87;;;;;;;8.03;67.42;100673.89;1743171;82;21555;-37
2021/10/30 02:05:56;;;;;;;40.87;25.80;;;;;;;8.02;67.45;100677.69;1743327;82;21129;-37
2021/10/30 02:08:22;;;;;;;39.88;25.75;;;;;;;7.98;67.46;100680.77;1747405;81;20969;-37
2021/10/30 02:10:49;;;;;;;41.42;26.23;;;;;;;7.93;67.50;100674.15;1764037;81;20899;-37
2021/10/30 02:13:15;;;;;;;37.30;25.37;;;;;;;7.89;67.57;100673.14;1752162;81;21477;-37
2021/10/30 02:15:42;;;;;;;38.13;24.90;;;;;;;7.86;67.66;100674.58;1737663;82;21002;-37
2021/10/30 02:18:11;;;;;;;37.20;25.12;;;;;;;7.88;67.63;100679.67;1738324;81;21065;-37
2021/10/30 02:20:38;;;;;;;38.23;25.27;;;;;;;7.89;67.59;100680.48;1748971;81;20965;-37
2021/10/30 02:23:04;;;;;;;37.83;25.50;;;;;;;7.83;67.66;100676.55;1749004;82;20913;-36
2021/10/30 02:25:32;;;;;;;38.92;25.68;;;;;;;7.80;67.78;100679.05;1749071;82;21547;-37
2021/10/30 02:27:58;;;;;;;37.83;25.90;;;;;;;7.76;67.82;100680.78;1749061;82;21029;-36
2021/10/30 02:30:26;;;;;;;36.60;26.48;;;;;;;7.71;67.74;100683.05;1749003;82;21103;-37
2021/10/30 02:32:55;;;;;;;37.60;24.20;;;;;;;7.65;67.90;100680.80;1748724;82;20989;-36
2021/10/30 02:35:22;;;;;;;34.05;23.67;;;;;;;7.63;67.91;100693.80;1749123;82;21025;-37
2021/10/30 02:37:49;;;;;;;36.10;24.07;;;;;;;7.65;67.89;100698.35;1748729;82;21025;-37
2021/10/30 02:40:17;;;;;;;37.03;24.07;;;;;;;7.65;67.95;100692.95;1749042;82;21049;-37
2021/10/30 02:42:44;;;;;;;37.28;24.35;;;;;;;7.62;68.05;100683.55;1748725;82;21257;-37
2021/10/30 02:45:11;;;;;;;40.15;25.65;;;;;;;7.59;68.15;100693.63;1748658;82;21018;-37
2021/10/30 02:47:38;;;;;;;40.55;27.02;;;;;;;7.57;68.15;100695.82;1741715;82;20973;-37
2021/10/30 02:50:05;;;;;;;39.00;25.70;;;;;;;7.53;68.18;100696.73;1746251;80;21022;-36
2021/10/30 02:52:32;;;;;;;37.17;22.98;;;;;;;7.51;68.18;100696.23;1748715;82;21061;-37
2021/10/30 02:54:59;;;;;;;33.35;23.42;;;;;;;7.53;68.09;100691.34;1748695;82;21149;-37
2021/10/30 02:57:26;;;;;;;36.28;23.95;;;;;;;7.54;68.14;100699.69;1733185;82;20979;-37
2021/10/30 02:59:54;;;;;;;39.63;25.05;;;;;;;7.52;68.20;100697.84;1719181;83;21020;-37
2021/10/30 03:02:21;;;;;;;37.05;24.60;;;;;;;7.51;68.26;100701.63;1718924;83;21020;-37
2021/10/30 03:04:48;;;;;;;36.13;24.27;;;;;;;7.48;68.30;100700.91;1740655;82;20985;-36
2021/10/30 03:07:14;;;;;;;36.75;23.62;;;;;;;7.42;68.23;100706.42;1748742;82;21103;-37
2021/10/30 03:09:48;;;;;;;33.42;21.70;;;;;;;7.39;68.28;100701.64;1748699;82;21532;-37
2021/10/30 03:12:11;;;;;;;33.05;23.52;;;;;;;7.40;68.33;100709.19;1748319;81;21298;-36
2021/10/30 03:14:39;;;;;;;34.20;22.58;;;;;;;7.43;68.26;100702.63;1748790;82;21041;-36
2021/10/30 03:17:06;;;;;;;32.28;22.22;;;;;;;7.39;68.31;100703.00;1748827;82;21618;-37
2021/10/30 03:19:33;;;;;;;35.70;23.25;;;;;;;7.38;68.43;100699.24;1744854;82;21815;-36
2021/10/30 03:22:01;;;;;;;34.53;22.90;;;;;;;7.35;68.36;100703.36;1742957;82;21284;-37
2021/10/30 03:24:28;;;;;;;30.37;21.52;;;;;;;7.30;68.47;100702.67;1741749;82;20998;-37
2021/10/30 03:26:54;;;;;;;28.52;20.72;;;;;;;7.26;68.53;100703.05;1734909;82;21583;-37
2021/10/30 03:29:21;;;;;;;29.92;20.92;;;;;;;7.25;68.59;100702.24;1735076;82;21036;-37
2021/10/30 03:31:48;;;;;;;30.60;21.73;;;;;;;7.29;68.60;100699.17;1734878;82;21149;-37
2021/10/30 03:34:15;;;;;;;31.85;22.20;;;;;;;7.26;68.59;100697.07;1734901;82;21043;-36
2021/10/30 03:36:41;;;;;;;36.65;21.20;;;;;;;7.26;68.56;100700.34;1734927;82;21017;-37
2021/10/30 03:39:08;;;;;;;35.55;20.00;;;;;;;7.22;68.49;100699.34;1740787;82;21005;-36
2021/10/30 03:41:35;;;;;;;35.73;20.02;;;;;;;7.18;68.40;100703.20;1741945;81;21504;-37
2021/10/30 03:44:02;;;;;;;25.37;19.73;;;;;;;7.13;68.41;100695.22;1741652;81;21130;-37
2021/10/30 03:46:29;;;;;;;25.23;18.07;;;;;;;7.08;68.40;100695.88;1741684;81;20998;-36
2021/10/30 03:48:56;;;;;;;23.65;17.30;;;;;;;7.06;68.39;100700.25;1742813;82;21021;-36
2021/10/30 03:51:25;;;;;;;24.12;17.52;;;;;;;7.06;68.51;100699.45;1743338;82;21077;-36
2021/10/30 03:53:51;;;;;;;39.08;18.57;;;;;;;7.02;68.55;100695.19;1743140;82;21076;-37
2021/10/30 03:56:18;;;;;;;31.15;18.15;;;;;;;7.00;68.75;100700.10;1740406;82;21071;-36
2021/10/30 03:58:45;;;;;;;34.03;18.17;;;;;;;6.97;68.87;100699.37;1736841;82;21007;-37
2021/10/30 04:01:11;;;;;;;32.00;16.70;;;;;;;6.93;69.10;100699.70;1734712;82;21001;-37
2021/10/30 04:03:38;;;;;;;23.35;16.05;;;;;;;6.91;69.28;100691.13;1734752;82;21552;-37
2021/10/30 04:06:05;;;;;;;36.15;17.05;;;;;;;6.93;69.32;100692.96;1734866;82;21021;-37
2021/10/30 04:08:32;;;;;;;36.10;16.57;;;;;;;6.95;69.45;100693.47;1712675;82;21145;-36
2021/10/30 04:10:59;;;;;;;45.45;18.20;;;;;;;6.93;69.79;100691.61;1697560;84;20973;-37
2021/10/30 04:13:27;;;;;;;49.95;17.57;;;;;;;6.93;70.00;100691.61;1742997;82;20954;-37
2021/10/30 04:15:53;;;;;;;32.13;15.32;;;;;;;6.94;70.15;100697.26;1743157;81;21484;-37
2021/10/30 04:18:21;;;;;;;24.43;16.50;;;;;;;6.93;70.25;100697.00;1743844;81;20991;-37
2021/10/30 04:20:49;;;;;;;32.13;16.48;;;;;;;7.00;70.39;100694.70;1756634;81;21496;-36
2021/10/30 04:23:16;;;;;;;44.27;16.82;;;;;;;7.08;70.37;100695.33;1756400;81;21021;-37
2021/10/30 04:25:42;;;;;;;46.73;16.60;;;;;;;7.11;70.66;100698.78;1756482;81;21084;-36
2021/10/30 04:28:09;;;;;;;34.38;17.60;;;;;;;7.15;70.63;100697.08;1756547;81;20965;-37
2021/10/30 04:30:36;;;;;;;34.58;16.30;;;;;;;7.16;70.69;100697.87;1756428;81;20998;-37
2021/10/30 04:33:04;;;;;;;22.22;15.55;;;;;;;7.15;70.62;100693.03;1756606;81;21053;-37
2021/10/30 04:35:32;;;;;;;33.15;15.80;;;;;;;7.19;70.69;100700.75;1756556;81;21575;-37
2021/10/30 04:37:59;;;;;;;48.90;16.05;;;;;;;7.26;70.70;100699.77;1756439;81;20981;-36
2021/10/30 04:40:26;;;;;;;46.90;17.45;;;;;;;7.26;70.75;100700.34;1756515;81;21415;-37
2021/10/30 04:42:52;;;;;;;40.20;18.32;;;;;;;7.27;70.82;100703.27;1756637;81;21048;-36
2021/10/30 04:45:19;;;;;;;64.53;17.70;;;;;;;7.27;70.83;100704.06;1756234;81;21123;-37
2021/10/30 04:47:46;;;;;;;22.85;16.05;;;;;;;7.26;70.96;100707.86;1755130;81;21515;-36
2021/10/30 04:50:13;;;;;;;20.17;15.32;;;;;;;7.25;71.00;100702.24;1756651;81;20976;-36
2021/10/30 04:52:44;;;;;;;26.25;15.60;;;;;;;7.32;71.09;100701.25;1756570;81;20945;-37
2021/10/30 04:55:10;;;;;;;44.90;16.27;;;;;;;7.41;71.04;100698.63;1756804;81;21657;-37
2021/10/30 04:57:38;;;;;;;26.20;17.37;;;;;;;7.43;71.01;100699.92;1756686;81;21879;-37
2021/10/30 05:00:07;;;;;;;54.95;16.75;;;;;;;7.43;70.99;100702.63;1756550;81;21029;-37
2021/10/30 05:02:35;;;;;;;23.18;15.18;;;;;;;7.45;70.95;100705.58;1756547;81;21508;-37
2021/10/30 05:05:02;;;;;;;20.02;15.63;;;;;;;7.47;70.79;100708.75;1755102;81;21025;-37
2021/10/30 05:07:29;;;;;;;32.88;15.98;;;;;;;7.53;70.77;100708.33;1753936;81;21102;-37
2021/10/30 05:09:56;;;;;;;26.65;16.05;;;;;;;7.59;70.53;100712.52;1756288;81;21097;-37
2021/10/30 05:12:22;;;;;;;35.75;17.90;;;;;;;7.58;70.55;100712.81;1756510;81;21514;-36
2021/10/30 05:14:49;;;;;;;51.77;16.62;;;;;;;7.56;70.53;100716.36;1756507;81;20956;-36
2021/10/30 05:17:15;;;;;;;62.48;15.85;;;;;;;7.53;70.60;100722.38;1756321;81;21016;-36
2021/10/30 05:19:42;;;;;;;19.40;15.50;;;;;;;7.47;70.59;100719.54;1752180;81;21077;-37
2021/10/30 05:22:09;;;;;;;18.02;15.03;;;;;;;7.42;70.82;100728.00;1747076;82;21169;-37
2021/10/30 05:24:36;;;;;;;18.90;15.03;;;;;;;7.50;70.82;100729.75;1746487;81;20966;-37
2021/10/30 05:27:03;;;;;;;27.05;15.95;;;;;;;7.57;70.83;100731.45;1744936;82;21559;-37
2021/10/30 05:29:30;;;;;;;31.33;16.35;;;;;;;7.58;70.79;100731.70;1734255;82;21029;-37
2021/10/30 05:31:57;;;;;;;39.38;16.42;;;;;;;7.61;70.85;100728.38;1748865;82;21570;-36
2021/10/30 05:34:26;;;;;;;21.02;17.05;;;;;;;7.63;70.63;100734.28;1722595;82;21937;-36
2021/10/30 05:36:54;;;;;;;23.50;15.48;;;;;;;7.58;70.53;100731.16;1728963;82;20958;-38
2021/10/30 05:39:26;;;;;;;21.73;15.10;;;;;;;7.60;70.57;100740.30;1747757;81;20950;-38
2021/10/30 05:41:53;;;;;;;20.35;14.90;;;;;;;7.63;70.30;100734.28;1748706;82;21033;-38
2021/10/30 05:44:19;;;;;;;25.60;15.55;;;;;;;7.64;70.33;100737.23;1747688;82;21543;-38
2021/10/30 05:46:45;;;;;;;41.18;15.93;;;;;;;7.63;70.43;100742.37;1731827;82;21053;-37
2021/10/30 05:49:14;;;;;;;24.37;16.00;;;;;;;7.65;70.52;100741.53;1748628;82;20965;-38
2021/10/30 05:51:41;;;;;;;35.75;16.57;;;;;;;7.66;70.51;100742.55;1732310;82;21024;-38
2021/10/30 05:54:08;;;;;;;19.73;14.70;;;;;;;7.66;70.47;100744.45;1731813;82;21100;-38
2021/10/30 05:56:34;;;;;;;18.62;13.53;;;;;;;7.66;70.29;100747.95;1747689;82;21578;-38
2021/10/30 05:59:02;;;;;;;19.42;14.18;;;;;;;7.72;70.22;100751.34;1729368;82;21850;-37
2021/10/30 06:01:32;;;;;;;30.77;14.38;;;;;;;7.76;70.26;100749.06;1734235;82;20961;-38
2021/10/30 06:03:58;;;;;;;42.85;14.75;;;;;;;7.80;70.21;100749.25;1720271;82;21434;-37
2021/10/30 06:06:25;;;;;;;41.23;15.00;;;;;;;7.77;69.82;100749.88;1733560;82;22126;-38
2021/10/30 06:08:51;;;;;;;18.00;13.72;;;;;;;7.74;69.92;100747.80;1737080;82;21030;-38
2021/10/30 06:11:18;;;;;;;19.20;13.13;;;;;;;7.72;69.64;100752.14;1724429;82;21202;-38
2021/10/30 06:13:44;;;;;;;27.17;13.10;;;;;;;7.72;69.55;100764.84;1733915;82;21020;-38
2021/10/30 06:16:11;;;;;;;40.95;15.08;;;;;;;7.67;69.63;100763.05;1735821;81;20934;-38
2021/10/30 06:18:37;;;;;;;30.27;14.43;;;;;;;7.59;69.72;100765.14;1721287;81;21532;-38
2021/10/30 06:21:06;;;;;;;37.42;14.40;;;;;;;7.52;70.03;100770.70;1713870;83;21017;-37
2021/10/30 06:23:32;;;;;;;18.57;13.22;;;;;;;7.49;70.29;100764.57;1713599;83;21149;-38
2021/10/30 06:25:59;;;;;;;16.15;12.47;;;;;;;7.50;70.46;100768.87;1714123;82;21591;-38
2021/10/30 06:28:26;;;;;;;22.10;13.65;;;;;;;7.55;70.31;100768.17;1714249;82;21061;-37
2021/10/30 06:30:52;;;;;;;20.15;14.87;;;;;;;7.56;70.29;100763.03;1713612;83;21559;-38
2021/10/30 06:33:19;;;;;;;21.25;15.58;;;;;;;7.56;70.50;100754.94;1722849;82;21054;-38
2021/10/30 06:35:46;;;;;;;38.75;15.13;;;;;;;7.59;70.66;100764.34;1734354;82;21110;-38
2021/10/30 06:38:14;;;;;;;15.60;13.68;;;;;;;7.60;70.60;100759.20;1739794;82;21050;-37
2021/10/30 06:40:41;;;;;;;20.68;14.80;;;;;;;7.63;70.77;100761.27;1713615;83;20965;-38
2021/10/30 06:43:07;;;;;;;29.50;14.03;;;;;;;7.71;70.76;100767.28;1713613;83;20958;-37
2021/10/30 06:45:35;;;;;;;22.98;14.38;;;;;;;7.75;70.48;100769.06;1732588;82;21017;-38
2021/10/30 06:48:01;;;;;;;22.15;14.78;;;;;;;7.73;70.65;100769.14;1743167;82;21079;-38
2021/10/30 06:50:30;;;;;;;27.60;14.63;;;;;;;7.74;70.72;100765.34;1739968;82;21516;-38
2021/10/30 06:52:57;;;;;;;24.87;14.63;;;;;;;7.73;70.85;100768.59;1730343;82;21522;-38
2021/10/30 06:55:24;;;;;;;21.37;14.58;;;;;;;7.74;70.73;100768.84;1714010;82;21017;-38
2021/10/30 06:57:52;;;;;;;19.75;13.85;;;;;;;7.76;70.65;100773.91;1716043;82;21088;-38
2021/10/30 07:00:18;;;;;;;25.57;15.30;;;;;;;7.78;70.87;100777.92;1713878;83;21120;-38
2021/10/30 07:02:47;;;;;;;27.37;15.75;;;;;;;7.82;71.13;100780.25;1713385;83;20994;-38
2021/10/30 07:05:14;;;;;;;26.23;15.88;;;;;;;7.85;71.08;100783.67;1713736;83;20993;-38
2021/10/30 07:07:40;;;;;;;20.35;14.87;;;;;;;7.84;71.08;100786.70;1714075;82;21512;-38
2021/10/30 07:10:09;;;;;;;20.45;15.38;;;;;;;7.88;71.20;100782.28;1713820;83;21010;-37
2021/10/30 07:12:37;;;;;;;24.23;15.45;;;;;;;7.95;71.13;100778.58;1713772;83;21065;-37
2021/10/30 07:15:06;;;;;;;26.87;16.75;;;;;;;7.96;71.11;100784.23;1714026;83;21492;-38
2021/10/30 07:17:34;;;;;;;25.27;15.70;;;;;;;7.94;71.37;100782.96;1735943;82;20992;-38
2021/10/30 07:20:01;;;;;;;20.43;16.82;;;;;;;7.92;71.53;100785.95;1719751;82;21114;-38
2021/10/30 07:22:27;;;;;;;21.10;15.43;;;;;;;7.95;71.58;100779.94;1728435;81;21555;-38
2021/10/30 07:24:53;;;;;;;19.10;15.65;;;;;;;8.03;71.57;100781.91;1743986;81;21090;-37
2021/10/30 07:27:20;;;;;;;20.72;16.77;;;;;;;8.07;71.54;100780.73;1726508;82;20937;-38
2021/10/30 07:29:49;;;;;;;24.95;17.23;;;;;;;8.11;71.79;100777.11;1742343;81;21368;-37
2021/10/30 07:32:17;;;;;;;21.85;17.05;;;;;;;8.15;71.76;100775.94;1755758;81;21512;-38
2021/10/30 07:34:43;;;;;;;23.42;16.75;;;;;;;8.17;71.88;100780.48;1744195;81;21025;-38
2021/10/30 07:37:10;;;;;;;20.88;16.50;;;;;;;8.22;71.94;100787.12;1728744;81;21117;-38
2021/10/30 07:39:37;;;;;;;21.60;17.37;;;;;;;8.33;71.81;100779.59;1753279;81;20959;-38
2021/10/30 07:42:05;;;;;;;23.27;17.32;;;;;;;8.43;71.63;100786.05;1756293;81;21533;-38
2021/10/30 07:44:35;;;;;;;26.07;19.17;;;;;;;8.46;71.36;100782.75;1756772;81;21539;-38
2021/10/30 07:47:04;;;;;;;20.02;17.52;;;;;;;8.48;71.45;100780.52;1756396;81;21021;-38
2021/10/30 07:49:31;;;;;;;20.20;16.85;;;;;;;8.53;71.50;100784.44;1756508;81;21134;-38
2021/10/30 07:51:58;;;;;;;24.23;16.40;;;;;;;8.59;71.26;100787.25;1756223;81;21040;-38
2021/10/30 07:54:25;;;;;;;19.67;16.82;;;;;;;8.68;70.98;100785.38;1755231;80;21008;-38
2021/10/30 07:56:52;;;;;;;22.25;17.70;;;;;;;8.70;70.75;100790.73;1741858;81;21001;-38
2021/10/30 07:59:18;;;;;;;20.30;17.87;;;;;;;8.68;70.92;100788.09;1726591;83;21016;-38
2021/10/30 08:01:44;;;;;;;22.48;17.20;;;;;;;8.73;71.16;100790.66;1726194;83;21882;-38
2021/10/30 08:04:11;;;;;;;22.48;16.62;;;;;;;8.82;71.16;100781.22;1743164;80;20973;-38
2021/10/30 08:06:39;;;;;;;21.45;17.20;;;;;;;8.89;70.85;100785.08;1727673;81;20945;-38
2021/10/30 08:09:06;;;;;;;25.12;17.90;;;;;;;9.01;70.62;100790.67;1736381;81;21031;-38
2021/10/30 08:11:33;;;;;;;28.27;18.48;;;;;;;9.03;70.18;100784.41;1739033;82;21052;-38
2021/10/30 08:13:59;;;;;;;22.82;18.27;;;;;;;8.98;69.91;100786.45;1739439;82;21585;-38
2021/10/30 08:16:26;;;;;;;26.82;19.73;;;;;;;8.92;69.90;100789.85;1729321;81;20980;-38
2021/10/30 08:18:53;;;;;;;23.15;17.57;;;;;;;8.90;70.16;100788.03;1727108;81;20942;-38
2021/10/30 08:21:20;;;;;;;24.27;19.45;;;;;;;8.91;70.37;100789.60;1754884;81;20930;-38
2021/10/30 08:23:49;;;;;;;25.37;19.70;;;;;;;8.98;70.22;100795.92;1764177;81;20985;-38
2021/10/30 08:26:17;;;;;;;23.83;19.80;;;;;;;9.02;70.05;100792.27;1758405;81;21125;-38
2021/10/30 08:28:49;;;;;;;33.05;19.98;;;;;;;9.01;70.26;100785.27;1729774;81;21596;-38
2021/10/30 08:31:16;;;;;;;26.57;20.65;;;;;;;9.05;70.18;100784.10;1719082;82;21571;-38
2021/10/30 08:33:44;;;;;;;27.27;20.45;;;;;;;9.03;70.06;100788.47;1714011;82;21027;-38
2021/10/30 08:36:10;;;;;;;29.32;20.35;;;;;;;9.09;69.95;100789.13;1713695;83;21037;-38
2021/10/30 08:38:38;;;;;;;26.82;20.82;;;;;;;9.13;69.98;100786.83;1718071;82;21347;-38
2021/10/30 08:41:05;;;;;;;29.95;21.20;;;;;;;9.20;70.15;100790.98;1728952;82;20975;-38
2021/10/30 08:43:31;;;;;;;30.10;22.42;;;;;;;9.22;70.05;100784.69;1713402;83;21049;-38
2021/10/30 08:46:00;;;;;;;33.90;22.90;;;;;;;9.25;70.09;100790.25;1719069;82;21111;-38
2021/10/30 08:48:31;;;;;;;28.35;22.15;;;;;;;9.29;70.06;100791.80;1717162;82;21045;-38
2021/10/30 08:50:59;;;;;;;29.63;21.70;;;;;;;9.36;69.84;100793.45;1725724;82;21862;-38
2021/10/30 08:53:26;;;;;;;28.38;21.77;;;;;;;9.43;69.70;100787.03;1730788;82;20921;-38
2021/10/30 08:55:53;;;;;;;28.42;20.97;;;;;;;9.47;69.35;100790.70;1723150;82;21021;-38
2021/10/30 08:58:27;;;;;;;30.65;22.95;;;;;;;9.46;69.24;100793.16;1717449;82;21269;-38
2021/10/30 09:00:51;;;;;;;29.23;23.10;;;;;;;9.44;69.28;100791.34;1723468;81;21105;-38
2021/10/30 09:03:19;;;;;;;33.37;24.27;;;;;;;9.44;69.17;100788.64;1733273;80;21064;-38
2021/10/30 09:05:49;;;;;;;30.17;21.62;;;;;;;9.41;69.43;100785.98;1726847;82;20994;-38
2021/10/30 09:08:16;;;;;;;30.43;21.57;;;;;;;9.40;69.25;100797.92;1727762;80;20914;-38
2021/10/30 09:10:48;;;;;;;29.12;22.73;;;;;;;9.41;69.20;100790.61;1733254;81;20960;-38
2021/10/30 09:13:15;;;;;;;;;;;;;;;9.43;69.26;100793.80;1681224;85;21614;-38
2021/10/30 09:15:50;;;;;;;33.42;24.72;;;;;;;9.40;69.39;100791.71;1688901;83;21142;-38
2021/10/30 09:18:29;;;;;;;30.37;23.90;;;;;;;9.27;69.81;100791.30;1677315;84;20987;-38
2021/10/30 09:21:15;;;;;;;31.48;22.42;;;;;;;9.29;69.97;100790.44;1703073;83;21058;-38
2021/10/30 09:23:53;;;;;;;30.05;21.12;;;;;;;9.34;69.97;100795.70;1687766;83;21033;-38
2021/10/30 09:26:26;;;;;;;28.83;22.07;;;;;;;9.43;69.79;100792.45;1708177;83;21053;-38
2021/10/30 09:29:05;;;;;;;33.08;23.05;;;;;;;9.48;69.62;100803.13;1713898;83;21199;-38
2021/10/30 09:31:34;;;;;;;30.23;23.20;;;;;;;9.48;69.50;100796.36;1698066;83;21566;-38
2021/10/30 09:35:46;;;;;;;30.05;20.90;;;;;;;9.50;69.53;100793.56;1809991;78;22667;-37
2021/10/30 09:38:34;;;;;;;28.75;21.68;;;;;;;9.43;69.43;100793.25;1783419;80;20968;-37
2021/10/30 09:41:03;;;;;;;30.55;22.98;;;;;;;9.50;69.34;100794.11;1786698;79;21861;-37
2021/10/30 09:43:30;;;;;;;29.87;22.63;;;;;;;9.51;69.25;100793.80;1722047;82;21512;-37
2021/10/30 09:46:05;;;;;;;30.95;24.45;;;;;;;9.52;69.19;100788.64;1747464;82;21627;-37
2021/10/30 09:48:33;;;;;;;31.68;23.15;;;;;;;9.44;68.97;100788.05;1747499;82;21033;-37
2021/10/30 09:51:01;;;;;;;34.03;23.95;;;;;;;9.34;69.34;100787.59;1729965;82;21039;-37
2021/10/30 09:53:41;;;;;;;31.80;22.73;;;;;;;9.37;69.70;100795.06;1732362;82;20977;-37
2021/10/30 09:56:11;;;;;;;35.40;22.90;;;;;;;9.43;69.49;100789.74;1717981;82;20958;-37
2021/10/30 09:58:43;;;;;;;33.10;23.00;;;;;;;9.48;69.22;100788.23;1719245;82;21575;-37
2021/10/30 10:01:19;;;;;;;32.45;23.15;;;;;;;9.49;69.23;100779.78;1739815;81;21065;-37
2021/10/30 10:03:51;;;;;;;28.70;22.37;;;;;;;9.49;69.19;100785.75;1720778;82;21005;-37
2021/10/30 10:06:23;;;;;;;31.12;22.15;;;;;;;9.44;69.27;100777.81;1732435;82;21122;-37
2021/10/30 10:08:47;;;;;;;;;;;;;;;9.44;69.35;100784.58;1714932;82;20921;-37
2021/10/30 10:11:16;;;;;;;28.02;20.60;;;;;;;9.47;69.02;100777.96;1737898;82;20099;-37
2021/10/30 10:13:49;;;;;;;27.30;21.17;;;;;;;9.47;69.14;100774.45;1731690;81;21047;-37
2021/10/30 10:16:22;;;;;;;28.67;21.35;;;;;;;9.54;69.05;100776.12;1737857;82;21048;-37
2021/10/30 10:18:51;;;;;;;25.68;20.82;;;;;;;9.56;68.74;100777.96;1732169;82;21131;-38
2021/10/30 10:21:26;;;;;;;27.45;21.45;;;;;;;9.52;68.62;100779.72;1715981;82;20994;-37
2021/10/30 10:23:57;;;;;;;27.07;19.45;;;;;;;9.44;68.75;100776.45;1724394;82;20984;-37
2021/10/30 10:26:34;;;;;;;28.07;19.73;;;;;;;9.39;68.86;100780.08;1730426;83;21064;-37
2021/10/30 10:29:05;;;;;;;26.00;19.35;;;;;;;9.42;68.91;100771.35;1678291;83;21096;-37
2021/10/30 10:31:32;;;;;;;28.05;20.72;;;;;;;9.41;68.96;100773.02;1730661;83;21290;-37
2021/10/30 10:34:17;;;;;;;26.75;20.15;;;;;;;9.41;69.13;100775.16;1727079;82;21071;-37
2021/10/30 10:36:46;;;;;;;28.40;20.72;;;;;;;9.39;69.18;100770.61;1711008;81;21029;-37
2021/10/30 10:39:18;;;;;;;25.43;18.12;;;;;;;9.41;69.30;100767.59;1690643;83;20972;-37
2021/10/30 10:41:51;;;;;;;21.55;17.82;;;;;;;9.47;69.21;100764.98;1718129;83;21025;-37
2021/10/30 10:44:29;;;;;;;22.17;18.12;;;;;;;9.55;69.04;100764.98;1725858;82;21103;-37
2021/10/30 10:46:58;;;;;;;24.00;18.70;;;;;;;9.61;68.83;100761.56;1776603;79;21003;-37
2021/10/30 10:52:17;;;;;;;23.45;18.17;;;;;;;9.58;68.75;100766.27;1777829;79;21010;-38
2021/10/30 10:54:59;;;;;;;23.05;17.92;;;;;;;9.59;68.71;100763.78;1773500;79;21529;-37
2021/10/30 10:57:28;;;;;;;20.92;16.82;;;;;;;9.56;68.90;100757.10;1772823;79;21127;-37
2021/10/30 11:00:10;;;;;;;19.37;16.10;;;;;;;9.63;68.90;100761.25;1764313;79;21050;-37
2021/10/30 11:02:41;;;;;;;19.92;16.87;;;;;;;9.72;68.63;100762.84;1769224;80;21000;-37
2021/10/30 11:05:23;;;;;;;19.48;15.95;;;;;;;9.77;68.39;100758.63;1765028;80;21540;-37
2021/10/30 11:07:56;;;;;;;21.27;16.90;;;;;;;9.76;68.25;100759.73;1763875;80;21062;-37
2021/10/30 11:10:33;;;;;;;22.30;16.70;;;;;;;9.73;68.38;100757.64;1778313;80;21088;-37
2021/10/30 11:13:09;;;;;;;20.85;16.30;;;;;;;9.67;68.08;100757.59;1773417;79;21547;-37
2021/10/30 11:15:49;;;;;;;17.23;14.10;;;;;;;9.59;68.56;100751.59;1764183;80;22201;-38
2021/10/30 11:18:28;;;;;;;16.57;13.35;;;;;;;9.63;68.90;100748.52;1762203;80;21125;-37
2021/10/30 11:21:18;;;;;;;18.52;15.38;;;;;;;9.75;68.76;100747.30;1755157;80;21061;-37
2021/10/30 11:23:48;;;;;;;19.87;14.93;;;;;;;9.85;68.45;100753.74;1765294;80;21135;-37
2021/10/30 11:26:29;;;;;;;18.37;15.40;;;;;;;9.86;68.29;100749.92;1778309;80;21008;-37